sensor_id;sensor_type;location;lat;lon;timestamp;noise_LAeq;noise_LA_min;noise_LA_max;noise_LA01;noise_LA95
72466;Laerm;60471;52.150;4.508;2023-06-10T00:00:45;51.44;38.30;62.69;;
72466;Laerm;60471;52.150;4.508;2023-06-10T00:03:11;51.78;39.69;62.63;;
72466;Laerm;60471;52.150;4.508;2023-06-10T00:05:38;51.37;38.23;63.04;;
72466;Laerm;60471;52.150;4.508;2023-06-10T00:08:08;51.77;37.68;62.86;;
72466;Laerm;60471;52.150;4.508;2023-06-10T00:10:35;51.23;37.82;62.85;;
72466;Laerm;60471;52.150;4.508;2023-06-10T00:13:06;51.12;38.25;63.21;;
72466;Laerm;60471;52.150;4.508;2023-06-10T00:15:35;51.41;38.03;63.23;;
72466;Laerm;60471;52.150;4.508;2023-06-10T00:18:03;51.29;37.77;62.54;;
72466;Laerm;60471;52.150;4.508;2023-06-10T00:20:30;52.70;38.51;63.14;;
72466;Laerm;60471;52.150;4.508;2023-06-10T00:22:58;51.61;38.66;63.42;;
72466;Laerm;60471;52.150;4.508;2023-06-10T00:25:27;52.12;39.55;62.86;;
72466;Laerm;60471;52.150;4.508;2023-06-10T00:27:53;52.15;38.30;63.20;;
72466;Laerm;60471;52.150;4.508;2023-06-10T00:30:19;51.63;38.65;63.00;;
72466;Laerm;60471;52.150;4.508;2023-06-10T00:32:46;51.49;37.41;63.11;;
72466;Laerm;60471;52.150;4.508;2023-06-10T00:35:12;51.40;38.47;62.45;;
72466;Laerm;60471;52.150;4.508;2023-06-10T00:37:38;51.40;37.94;62.13;;
72466;Laerm;60471;52.150;4.508;2023-06-10T00:40:06;51.22;38.16;62.87;;
72466;Laerm;60471;52.150;4.508;2023-06-10T00:42:35;51.68;39.84;63.08;;
72466;Laerm;60471;52.150;4.508;2023-06-10T00:45:01;51.83;38.07;64.12;;
72466;Laerm;60471;52.150;4.508;2023-06-10T00:47:29;51.54;39.03;62.95;;
72466;Laerm;60471;52.150;4.508;2023-06-10T00:49:57;51.56;37.80;62.62;;
72466;Laerm;60471;52.150;4.508;2023-06-10T00:52:28;51.66;39.57;63.47;;
72466;Laerm;60471;52.150;4.508;2023-06-10T00:54:55;51.08;39.06;62.59;;
72466;Laerm;60471;52.150;4.508;2023-06-10T00:57:21;52.16;38.01;63.80;;
72466;Laerm;60471;52.150;4.508;2023-06-10T00:59:49;52.50;36.87;63.27;;
72466;Laerm;60471;52.150;4.508;2023-06-10T01:02:15;53.07;37.96;64.70;;
72466;Laerm;60471;52.150;4.508;2023-06-10T01:04:42;52.90;38.84;64.72;;
72466;Laerm;60471;52.150;4.508;2023-06-10T01:07:24;51.44;37.86;63.30;;
72466;Laerm;60471;52.150;4.508;2023-06-10T01:10:59;51.23;38.38;63.60;;
72466;Laerm;60471;52.150;4.508;2023-06-10T01:13:09;44.14;38.04;53.51;;
72466;Laerm;60471;52.150;4.508;2023-06-10T01:15:38;56.66;38.88;68.83;;
72466;Laerm;60471;52.150;4.508;2023-06-10T01:18:10;52.36;38.54;63.22;;
72466;Laerm;60471;52.150;4.508;2023-06-10T01:20:42;52.84;38.92;63.22;;
72466;Laerm;60471;52.150;4.508;2023-06-10T01:23:11;52.75;38.50;63.70;;
72466;Laerm;60471;52.150;4.508;2023-06-10T01:25:41;51.37;38.14;63.03;;
72466;Laerm;60471;52.150;4.508;2023-06-10T01:31:36;51.09;38.74;63.60;;
72466;Laerm;60471;52.150;4.508;2023-06-10T01:34:10;52.11;37.63;63.69;;
72466;Laerm;60471;52.150;4.508;2023-06-10T01:36:41;52.26;38.76;63.73;;
72466;Laerm;60471;52.150;4.508;2023-06-10T01:39:11;53.32;37.15;63.76;;
72466;Laerm;60471;52.150;4.508;2023-06-10T01:41:39;52.33;38.36;63.62;;
72466;Laerm;60471;52.150;4.508;2023-06-10T01:44:06;52.59;38.88;63.80;;
72466;Laerm;60471;52.150;4.508;2023-06-10T01:46:32;52.29;38.36;63.66;;
72466;Laerm;60471;52.150;4.508;2023-06-10T01:48:58;52.92;39.74;63.56;;
72466;Laerm;60471;52.150;4.508;2023-06-10T01:51:25;52.85;39.40;64.22;;
72466;Laerm;60471;52.150;4.508;2023-06-10T01:53:51;52.49;39.01;64.74;;
72466;Laerm;60471;52.150;4.508;2023-06-10T01:56:17;52.09;38.36;63.17;;
72466;Laerm;60471;52.150;4.508;2023-06-10T01:58:46;52.57;37.90;64.43;;
72466;Laerm;60471;52.150;4.508;2023-06-10T02:01:13;51.85;38.79;63.78;;
72466;Laerm;60471;52.150;4.508;2023-06-10T02:03:40;52.19;37.83;64.54;;
72466;Laerm;60471;52.150;4.508;2023-06-10T02:06:06;52.91;39.04;64.87;;
72466;Laerm;60471;52.150;4.508;2023-06-10T02:08:33;52.26;38.50;64.20;;
72466;Laerm;60471;52.150;4.508;2023-06-10T02:10:59;52.53;38.25;64.45;;
72466;Laerm;60471;52.150;4.508;2023-06-10T02:13:25;52.61;38.52;64.60;;
72466;Laerm;60471;52.150;4.508;2023-06-10T02:15:51;52.83;37.36;63.99;;
72466;Laerm;60471;52.150;4.508;2023-06-10T02:18:20;52.57;37.86;64.73;;
72466;Laerm;60471;52.150;4.508;2023-06-10T02:20:46;52.57;38.86;63.64;;
72466;Laerm;60471;52.150;4.508;2023-06-10T02:23:13;52.64;38.31;64.90;;
72466;Laerm;60471;52.150;4.508;2023-06-10T02:25:39;53.65;38.61;65.59;;
72466;Laerm;60471;52.150;4.508;2023-06-10T02:28:05;53.41;39.53;64.62;;
72466;Laerm;60471;52.150;4.508;2023-06-10T02:30:32;53.89;39.09;65.40;;
72466;Laerm;60471;52.150;4.508;2023-06-10T02:32:58;53.47;39.54;65.31;;
72466;Laerm;60471;52.150;4.508;2023-06-10T02:35:25;53.35;39.19;65.09;;
72466;Laerm;60471;52.150;4.508;2023-06-10T02:37:51;53.98;39.79;65.38;;
72466;Laerm;60471;52.150;4.508;2023-06-10T02:40:17;53.64;40.04;66.73;;
72466;Laerm;60471;52.150;4.508;2023-06-10T02:42:43;53.59;40.23;66.24;;
72466;Laerm;60471;52.150;4.508;2023-06-10T02:45:10;53.98;40.18;65.63;;
72466;Laerm;60471;52.150;4.508;2023-06-10T02:47:37;53.67;40.96;66.43;;
72466;Laerm;60471;52.150;4.508;2023-06-10T02:50:05;53.33;40.26;64.10;;
72466;Laerm;60471;52.150;4.508;2023-06-10T02:52:31;53.39;39.81;65.81;;
72466;Laerm;60471;52.150;4.508;2023-06-10T02:54:58;53.53;39.23;64.77;;
72466;Laerm;60471;52.150;4.508;2023-06-10T02:57:24;54.02;40.00;65.39;;
72466;Laerm;60471;52.150;4.508;2023-06-10T02:59:50;53.79;39.52;65.71;;
72466;Laerm;60471;52.150;4.508;2023-06-10T03:02:17;53.94;39.90;64.89;;
72466;Laerm;60471;52.150;4.508;2023-06-10T03:04:43;54.12;39.77;66.73;;
72466;Laerm;60471;52.150;4.508;2023-06-10T03:07:11;53.07;38.42;64.06;;
72466;Laerm;60471;52.150;4.508;2023-06-10T03:09:37;53.57;39.65;64.49;;
72466;Laerm;60471;52.150;4.508;2023-06-10T03:12:04;52.84;39.85;64.43;;
72466;Laerm;60471;52.150;4.508;2023-06-10T03:14:30;52.81;40.06;64.34;;
72466;Laerm;60471;52.150;4.508;2023-06-10T03:16:57;54.25;40.14;67.04;;
72466;Laerm;60471;52.150;4.508;2023-06-10T03:19:23;53.43;40.56;65.10;;
72466;Laerm;60471;52.150;4.508;2023-06-10T03:21:57;52.91;39.69;64.90;;
72466;Laerm;60471;52.150;4.508;2023-06-10T03:24:23;53.31;40.18;64.60;;
72466;Laerm;60471;52.150;4.508;2023-06-10T03:26:49;53.47;39.66;64.80;;
72466;Laerm;60471;52.150;4.508;2023-06-10T03:29:16;52.72;39.49;63.71;;
72466;Laerm;60471;52.150;4.508;2023-06-10T03:31:42;54.01;39.84;65.97;;
72466;Laerm;60471;52.150;4.508;2023-06-10T03:34:08;55.07;40.13;79.52;;
72466;Laerm;60471;52.150;4.508;2023-06-10T03:36:34;53.88;39.43;65.98;;
72466;Laerm;60471;52.150;4.508;2023-06-10T03:39:03;53.22;40.70;65.59;;
72466;Laerm;60471;52.150;4.508;2023-06-10T03:41:29;54.72;40.97;66.44;;
72466;Laerm;60471;52.150;4.508;2023-06-10T03:43:55;54.66;40.40;67.94;;
72466;Laerm;60471;52.150;4.508;2023-06-10T03:46:22;55.34;40.86;66.80;;
72466;Laerm;60471;52.150;4.508;2023-06-10T03:48:48;53.34;41.25;64.30;;
72466;Laerm;60471;52.150;4.508;2023-06-10T03:51:14;53.96;39.85;66.28;;
72466;Laerm;60471;52.150;4.508;2023-06-10T03:53:41;54.05;40.12;66.17;;
72466;Laerm;60471;52.150;4.508;2023-06-10T03:56:07;52.94;41.45;64.29;;
72466;Laerm;60471;52.150;4.508;2023-06-10T03:58:33;54.65;41.00;68.18;;
72466;Laerm;60471;52.150;4.508;2023-06-10T04:00:59;54.17;41.12;66.34;;
72466;Laerm;60471;52.150;4.508;2023-06-10T04:03:26;54.91;41.72;66.63;;
72466;Laerm;60471;52.150;4.508;2023-06-10T04:05:53;54.78;40.22;66.90;;
72466;Laerm;60471;52.150;4.508;2023-06-10T04:08:19;54.88;41.69;65.18;;
72466;Laerm;60471;52.150;4.508;2023-06-10T04:10:46;53.67;41.33;64.54;;
72466;Laerm;60471;52.150;4.508;2023-06-10T04:13:12;53.14;40.58;64.44;;
72466;Laerm;60471;52.150;4.508;2023-06-10T04:15:40;52.82;40.93;64.30;;
72466;Laerm;60471;52.150;4.508;2023-06-10T04:18:06;54.34;40.61;65.68;;
72466;Laerm;60471;52.150;4.508;2023-06-10T04:20:32;54.65;40.94;66.72;;
72466;Laerm;60471;52.150;4.508;2023-06-10T04:22:59;52.87;40.41;64.93;;
72466;Laerm;60471;52.150;4.508;2023-06-10T04:25:25;54.50;40.50;65.80;;
72466;Laerm;60471;52.150;4.508;2023-06-10T04:27:52;55.62;42.08;67.36;;
72466;Laerm;60471;52.150;4.508;2023-06-10T04:30:18;55.17;40.97;67.72;;
72466;Laerm;60471;52.150;4.508;2023-06-10T04:32:45;55.60;41.09;67.29;;
72466;Laerm;60471;52.150;4.508;2023-06-10T04:35:12;55.49;40.88;66.88;;
72466;Laerm;60471;52.150;4.508;2023-06-10T04:37:39;54.16;41.77;67.53;;
72466;Laerm;60471;52.150;4.508;2023-06-10T04:40:07;53.99;40.10;66.51;;
72466;Laerm;60471;52.150;4.508;2023-06-10T04:42:34;55.18;40.60;66.54;;
72466;Laerm;60471;52.150;4.508;2023-06-10T04:45:00;54.84;40.74;65.94;;
72466;Laerm;60471;52.150;4.508;2023-06-10T04:47:27;55.13;40.71;66.07;;
72466;Laerm;60471;52.150;4.508;2023-06-10T04:49:54;54.89;41.78;67.22;;
72466;Laerm;60471;52.150;4.508;2023-06-10T04:52:20;54.32;40.28;66.94;;
72466;Laerm;60471;52.150;4.508;2023-06-10T04:54:46;56.76;41.50;69.09;;
72466;Laerm;60471;52.150;4.508;2023-06-10T04:57:14;55.78;40.94;68.26;;
72466;Laerm;60471;52.150;4.508;2023-06-10T04:59:40;56.16;41.64;67.01;;
72466;Laerm;60471;52.150;4.508;2023-06-10T05:02:07;55.30;41.34;66.56;;
72466;Laerm;60471;52.150;4.508;2023-06-10T05:04:33;54.41;39.74;65.71;;
72466;Laerm;60471;52.150;4.508;2023-06-10T05:06:59;55.14;40.06;66.73;;
72466;Laerm;60471;52.150;4.508;2023-06-10T05:09:25;54.00;40.86;65.30;;
72466;Laerm;60471;52.150;4.508;2023-06-10T05:11:52;54.01;40.87;66.48;;
72466;Laerm;60471;52.150;4.508;2023-06-10T05:14:19;54.80;41.40;66.04;;
72466;Laerm;60471;52.150;4.508;2023-06-10T05:16:50;53.84;41.42;64.93;;
72466;Laerm;60471;52.150;4.508;2023-06-10T05:19:16;54.07;41.07;65.59;;
72466;Laerm;60471;52.150;4.508;2023-06-10T05:21:44;56.75;41.07;67.46;;
72466;Laerm;60471;52.150;4.508;2023-06-10T05:24:11;53.81;41.10;65.06;;
72466;Laerm;60471;52.150;4.508;2023-06-10T05:26:37;54.78;42.02;65.85;;
72466;Laerm;60471;52.150;4.508;2023-06-10T05:29:05;55.02;41.55;66.71;;
72466;Laerm;60471;52.150;4.508;2023-06-10T05:31:31;54.87;42.07;65.19;;
72466;Laerm;60471;52.150;4.508;2023-06-10T05:33:58;54.50;41.81;65.58;;
72466;Laerm;60471;52.150;4.508;2023-06-10T05:36:24;54.44;41.55;64.24;;
72466;Laerm;60471;52.150;4.508;2023-06-10T05:38:53;55.22;41.37;65.82;;
72466;Laerm;60471;52.150;4.508;2023-06-10T05:41:19;54.40;42.61;65.27;;
72466;Laerm;60471;52.150;4.508;2023-06-10T05:43:46;54.73;42.35;68.40;;
72466;Laerm;60471;52.150;4.508;2023-06-10T05:46:13;56.65;42.05;67.87;;
72466;Laerm;60471;52.150;4.508;2023-06-10T05:48:39;54.47;41.09;64.25;;
72466;Laerm;60471;52.150;4.508;2023-06-10T05:51:05;55.24;41.70;65.45;;
72466;Laerm;60471;52.150;4.508;2023-06-10T05:53:32;54.85;41.16;65.92;;
72466;Laerm;60471;52.150;4.508;2023-06-10T05:55:58;54.08;41.38;65.21;;
72466;Laerm;60471;52.150;4.508;2023-06-10T05:58:24;54.50;40.62;65.87;;
72466;Laerm;60471;52.150;4.508;2023-06-10T06:00:50;54.97;41.10;66.40;;
72466;Laerm;60471;52.150;4.508;2023-06-10T06:03:17;55.47;41.65;65.97;;
72466;Laerm;60471;52.150;4.508;2023-06-10T06:05:44;56.95;42.63;67.32;;
72466;Laerm;60471;52.150;4.508;2023-06-10T06:08:11;54.85;42.52;65.52;;
72466;Laerm;60471;52.150;4.508;2023-06-10T06:10:39;53.62;40.67;65.77;;
72466;Laerm;60471;52.150;4.508;2023-06-10T06:13:05;55.16;41.83;65.71;;
72466;Laerm;60471;52.150;4.508;2023-06-10T06:15:31;54.70;41.01;65.57;;
72466;Laerm;60471;52.150;4.508;2023-06-10T06:17:58;53.84;41.17;65.23;;
72466;Laerm;60471;52.150;4.508;2023-06-10T06:20:24;55.77;43.61;69.41;;
72466;Laerm;60471;52.150;4.508;2023-06-10T06:22:50;55.07;42.89;65.92;;
72466;Laerm;60471;52.150;4.508;2023-06-10T06:25:16;54.58;42.01;66.19;;
72466;Laerm;60471;52.150;4.508;2023-06-10T06:27:43;54.85;42.60;64.75;;
72466;Laerm;60471;52.150;4.508;2023-06-10T06:30:09;54.47;42.41;67.57;;
72466;Laerm;60471;52.150;4.508;2023-06-10T06:32:36;54.48;42.07;63.32;;
72466;Laerm;60471;52.150;4.508;2023-06-10T06:35:02;57.68;42.30;67.88;;
72466;Laerm;60471;52.150;4.508;2023-06-10T06:37:28;54.65;40.98;64.22;;
72466;Laerm;60471;52.150;4.508;2023-06-10T06:39:54;54.30;41.64;64.31;;
72466;Laerm;60471;52.150;4.508;2023-06-10T06:42:21;57.28;42.64;67.89;;
72466;Laerm;60471;52.150;4.508;2023-06-10T06:44:47;55.65;42.79;71.31;;
72466;Laerm;60471;52.150;4.508;2023-06-10T06:47:14;53.83;42.74;63.62;;
72466;Laerm;60471;52.150;4.508;2023-06-10T06:49:40;55.08;43.01;67.69;;
72466;Laerm;60471;52.150;4.508;2023-06-10T06:52:06;54.90;41.38;71.53;;
72466;Laerm;60471;52.150;4.508;2023-06-10T06:54:32;54.08;43.26;63.46;;
72466;Laerm;60471;52.150;4.508;2023-06-10T06:56:59;53.87;41.50;63.58;;
72466;Laerm;60471;52.150;4.508;2023-06-10T06:59:25;55.93;42.51;77.63;;
72466;Laerm;60471;52.150;4.508;2023-06-10T07:01:51;55.34;43.53;64.51;;
72466;Laerm;60471;52.150;4.508;2023-06-10T07:04:20;55.07;42.93;63.39;;
72466;Laerm;60471;52.150;4.508;2023-06-10T07:06:50;55.78;43.53;65.01;;
72466;Laerm;60471;52.150;4.508;2023-06-10T07:09:17;55.12;42.86;64.27;;
72466;Laerm;60471;52.150;4.508;2023-06-10T07:11:43;53.81;41.92;63.80;;
72466;Laerm;60471;52.150;4.508;2023-06-10T07:14:09;54.96;42.98;64.53;;
72466;Laerm;60471;52.150;4.508;2023-06-10T07:16:35;55.73;42.94;70.95;;
72466;Laerm;60471;52.150;4.508;2023-06-10T07:19:01;56.29;43.38;65.24;;
72466;Laerm;60471;52.150;4.508;2023-06-10T07:21:30;54.06;41.90;66.45;;
72466;Laerm;60471;52.150;4.508;2023-06-10T07:23:56;55.71;42.39;65.18;;
72466;Laerm;60471;52.150;4.508;2023-06-10T07:26:22;53.84;42.65;64.14;;
72466;Laerm;60471;52.150;4.508;2023-06-10T07:28:48;55.00;42.25;67.67;;
72466;Laerm;60471;52.150;4.508;2023-06-10T07:31:15;55.22;43.66;64.52;;
72466;Laerm;60471;52.150;4.508;2023-06-10T07:33:41;55.17;45.23;65.52;;
72466;Laerm;60471;52.150;4.508;2023-06-10T07:36:09;62.81;42.84;79.72;;
72466;Laerm;60471;52.150;4.508;2023-06-10T07:38:36;57.53;43.98;76.53;;
72466;Laerm;60471;52.150;4.508;2023-06-10T07:41:02;60.82;44.25;76.48;;
72466;Laerm;60471;52.150;4.508;2023-06-10T07:43:29;55.52;43.00;63.42;;
72466;Laerm;60471;52.150;4.508;2023-06-10T07:45:55;55.55;43.07;65.55;;
72466;Laerm;60471;52.150;4.508;2023-06-10T07:48:21;56.10;42.83;64.38;;
72466;Laerm;60471;52.150;4.508;2023-06-10T07:50:48;57.33;42.76;66.10;;
72466;Laerm;60471;52.150;4.508;2023-06-10T07:53:14;55.20;42.38;64.14;;
72466;Laerm;60471;52.150;4.508;2023-06-10T07:55:40;55.99;43.23;74.34;;
72466;Laerm;60471;52.150;4.508;2023-06-10T07:58:06;55.30;44.56;69.14;;
72466;Laerm;60471;52.150;4.508;2023-06-10T08:00:33;56.40;45.34;64.59;;
72466;Laerm;60471;52.150;4.508;2023-06-10T08:02:59;55.89;43.42;73.02;;
72466;Laerm;60471;52.150;4.508;2023-06-10T08:05:25;55.24;42.41;75.60;;
72466;Laerm;60471;52.150;4.508;2023-06-10T08:07:52;58.58;46.56;70.77;;
72466;Laerm;60471;52.150;4.508;2023-06-10T08:10:18;56.50;45.70;64.60;;
72466;Laerm;60471;52.150;4.508;2023-06-10T08:12:45;56.28;44.29;67.18;;
72466;Laerm;60471;52.150;4.508;2023-06-10T08:15:11;56.02;46.76;65.00;;
72466;Laerm;60471;52.150;4.508;2023-06-10T08:17:38;55.11;42.56;65.32;;
72466;Laerm;60471;52.150;4.508;2023-06-10T08:20:06;55.97;42.50;67.33;;
72466;Laerm;60471;52.150;4.508;2023-06-10T08:22:32;55.91;43.89;65.81;;
72466;Laerm;60471;52.150;4.508;2023-06-10T08:24:59;56.56;44.78;63.87;;
72466;Laerm;60471;52.150;4.508;2023-06-10T08:27:25;56.66;44.15;64.37;;
72466;Laerm;60471;52.150;4.508;2023-06-10T08:29:52;56.84;45.40;64.38;;
72466;Laerm;60471;52.150;4.508;2023-06-10T08:32:18;53.53;43.46;63.50;;
72466;Laerm;60471;52.150;4.508;2023-06-10T08:34:44;55.90;42.30;64.36;;
72466;Laerm;60471;52.150;4.508;2023-06-10T08:37:10;57.31;45.18;65.33;;
72466;Laerm;60471;52.150;4.508;2023-06-10T08:39:36;57.30;44.13;71.71;;
72466;Laerm;60471;52.150;4.508;2023-06-10T08:44:37;54.79;43.87;63.22;;
72466;Laerm;60471;52.150;4.508;2023-06-10T08:47:16;56.85;46.42;66.82;;
72466;Laerm;60471;52.150;4.508;2023-06-10T08:49:47;55.25;44.40;72.22;;
72466;Laerm;60471;52.150;4.508;2023-06-10T08:52:17;54.82;43.31;63.80;;
72466;Laerm;60471;52.150;4.508;2023-06-10T08:55:03;56.30;45.94;63.37;;
72466;Laerm;60471;52.150;4.508;2023-06-10T08:57:30;55.62;44.85;62.81;;
72466;Laerm;60471;52.150;4.508;2023-06-10T08:59:57;55.44;46.37;64.16;;
72466;Laerm;60471;52.150;4.508;2023-06-10T09:02:24;56.93;46.97;67.53;;
72466;Laerm;60471;52.150;4.508;2023-06-10T09:04:51;58.61;45.90;74.59;;
72466;Laerm;60471;52.150;4.508;2023-06-10T09:07:20;56.80;45.29;72.80;;
72466;Laerm;60471;52.150;4.508;2023-06-10T09:09:48;53.92;44.93;64.67;;
72466;Laerm;60471;52.150;4.508;2023-06-10T09:12:15;57.12;45.77;64.12;;
72466;Laerm;60471;52.150;4.508;2023-06-10T09:14:44;56.05;45.35;62.99;;
72466;Laerm;60471;52.150;4.508;2023-06-10T09:17:11;54.31;43.42;66.76;;
72466;Laerm;60471;52.150;4.508;2023-06-10T09:19:39;56.19;44.97;63.60;;
72466;Laerm;60471;52.150;4.508;2023-06-10T09:22:06;54.80;44.21;65.29;;
72466;Laerm;60471;52.150;4.508;2023-06-10T09:24:32;56.41;48.53;69.29;;
72466;Laerm;60471;52.150;4.508;2023-06-10T09:27:04;56.35;45.80;70.66;;
72466;Laerm;60471;52.150;4.508;2023-06-10T09:32:12;55.78;47.52;64.24;;
72466;Laerm;60471;52.150;4.508;2023-06-10T09:34:39;53.75;45.02;64.97;;
72466;Laerm;60471;52.150;4.508;2023-06-10T09:37:06;57.39;48.20;66.54;;
72466;Laerm;60471;52.150;4.508;2023-06-10T09:39:32;57.42;45.78;68.00;;
72466;Laerm;60471;52.150;4.508;2023-06-10T09:41:58;56.38;44.70;65.25;;
72466;Laerm;60471;52.150;4.508;2023-06-10T09:44:25;56.30;43.99;64.37;;
72466;Laerm;60471;52.150;4.508;2023-06-10T09:46:51;56.97;47.01;67.54;;
72466;Laerm;60471;52.150;4.508;2023-06-10T09:49:17;55.15;46.86;62.77;;
72466;Laerm;60471;52.150;4.508;2023-06-10T09:51:51;55.42;42.86;63.45;;
72466;Laerm;60471;52.150;4.508;2023-06-10T09:54:19;56.70;44.84;64.44;;
72466;Laerm;60471;52.150;4.508;2023-06-10T09:56:52;55.37;46.23;62.37;;
72466;Laerm;60471;52.150;4.508;2023-06-10T09:59:45;56.82;44.04;63.07;;
72466;Laerm;60471;52.150;4.508;2023-06-10T10:02:16;54.73;44.38;63.53;;
72466;Laerm;60471;52.150;4.508;2023-06-10T10:04:44;54.48;44.11;63.96;;
72466;Laerm;60471;52.150;4.508;2023-06-10T10:07:11;55.98;46.04;62.96;;
72466;Laerm;60471;52.150;4.508;2023-06-10T10:09:39;59.59;45.64;74.35;;
72466;Laerm;60471;52.150;4.508;2023-06-10T10:12:15;56.68;44.27;66.91;;
72466;Laerm;60471;52.150;4.508;2023-06-10T10:14:46;58.88;49.68;67.86;;
72466;Laerm;60471;52.150;4.508;2023-06-10T10:17:16;57.66;47.80;70.15;;
72466;Laerm;60471;52.150;4.508;2023-06-10T10:20:05;57.27;46.55;66.02;;
72466;Laerm;60471;52.150;4.508;2023-06-10T10:22:39;56.59;46.42;65.48;;
72466;Laerm;60471;52.150;4.508;2023-06-10T10:25:11;56.13;46.54;70.19;;
72466;Laerm;60471;52.150;4.508;2023-06-10T10:27:48;53.61;41.40;62.02;;
72466;Laerm;60471;52.150;4.508;2023-06-10T10:30:21;56.74;48.33;74.07;;
72466;Laerm;60471;52.150;4.508;2023-06-10T10:32:59;55.99;46.28;67.37;;
72466;Laerm;60471;52.150;4.508;2023-06-10T10:35:27;57.18;49.47;67.31;;
72466;Laerm;60471;52.150;4.508;2023-06-10T10:37:54;56.47;46.83;67.09;;
72466;Laerm;60471;52.150;4.508;2023-06-10T10:40:22;55.04;45.94;63.28;;
72466;Laerm;60471;52.150;4.508;2023-06-10T10:42:50;56.45;46.95;65.34;;
72466;Laerm;60471;52.150;4.508;2023-06-10T10:45:17;55.64;46.40;62.49;;
72466;Laerm;60471;52.150;4.508;2023-06-10T10:47:52;57.82;46.78;72.79;;
72466;Laerm;60471;52.150;4.508;2023-06-10T10:50:20;57.14;45.33;67.26;;
72466;Laerm;60471;52.150;4.508;2023-06-10T10:55:24;54.74;46.85;66.46;;
72466;Laerm;60471;52.150;4.508;2023-06-10T10:58:05;57.11;45.08;67.33;;
72466;Laerm;60471;52.150;4.508;2023-06-10T11:00:37;56.02;43.85;68.30;;
72466;Laerm;60471;52.150;4.508;2023-06-10T11:03:06;57.16;47.93;72.41;;
72466;Laerm;60471;52.150;4.508;2023-06-10T11:05:43;55.65;44.98;69.15;;
72466;Laerm;60471;52.150;4.508;2023-06-10T11:11:23;57.80;47.75;71.28;;
72466;Laerm;60471;52.150;4.508;2023-06-10T11:16:28;55.94;47.73;68.63;;
72466;Laerm;60471;52.150;4.508;2023-06-10T11:18:55;57.40;48.62;64.53;;
72466;Laerm;60471;52.150;4.508;2023-06-10T11:21:25;55.46;43.94;66.53;;
72466;Laerm;60471;52.150;4.508;2023-06-10T11:23:51;60.12;48.33;73.10;;
72466;Laerm;60471;52.150;4.508;2023-06-10T11:26:30;56.25;47.92;71.52;;
72466;Laerm;60471;52.150;4.508;2023-06-10T11:29:02;58.11;46.42;71.91;;
72466;Laerm;60471;52.150;4.508;2023-06-10T11:31:33;55.98;47.24;65.38;;
72466;Laerm;60471;52.150;4.508;2023-06-10T11:34:05;54.75;47.28;63.83;;
72466;Laerm;60471;52.150;4.508;2023-06-10T11:36:35;55.64;47.21;68.58;;
72466;Laerm;60471;52.150;4.508;2023-06-10T11:39:04;57.25;47.10;70.99;;
72466;Laerm;60471;52.150;4.508;2023-06-10T11:41:33;57.64;48.36;67.59;;
72466;Laerm;60471;52.150;4.508;2023-06-10T11:44:13;56.82;46.05;65.13;;
72466;Laerm;60471;52.150;4.508;2023-06-10T11:46:41;55.44;44.88;70.09;;
72466;Laerm;60471;52.150;4.508;2023-06-10T11:49:11;54.85;44.15;68.43;;
72466;Laerm;60471;52.150;4.508;2023-06-10T11:51:39;55.67;46.22;71.02;;
72466;Laerm;60471;52.150;4.508;2023-06-10T11:54:09;57.36;48.60;63.82;;
72466;Laerm;60471;52.150;4.508;2023-06-10T11:56:36;56.27;45.90;65.57;;
72466;Laerm;60471;52.150;4.508;2023-06-10T11:59:05;56.50;45.57;67.11;;
72466;Laerm;60471;52.150;4.508;2023-06-10T12:01:41;55.78;47.46;64.17;;
72466;Laerm;60471;52.150;4.508;2023-06-10T12:04:13;55.41;42.54;70.28;;
72466;Laerm;60471;52.150;4.508;2023-06-10T12:06:49;55.80;44.86;64.28;;
72466;Laerm;60471;52.150;4.508;2023-06-10T12:09:24;56.93;47.46;64.26;;
72466;Laerm;60471;52.150;4.508;2023-06-10T12:12:08;55.79;47.81;65.94;;
72466;Laerm;60471;52.150;4.508;2023-06-10T12:14:57;56.04;47.44;63.81;;
72466;Laerm;60471;52.150;4.508;2023-06-10T12:19:56;56.35;49.16;65.45;;
72466;Laerm;60471;52.150;4.508;2023-06-10T12:22:23;56.57;49.11;67.63;;
72466;Laerm;60471;52.150;4.508;2023-06-10T12:25:02;56.95;47.68;71.72;;
72466;Laerm;60471;52.150;4.508;2023-06-10T12:27:30;56.00;46.82;65.86;;
72466;Laerm;60471;52.150;4.508;2023-06-10T12:29:59;56.31;47.59;66.03;;
72466;Laerm;60471;52.150;4.508;2023-06-10T12:35:09;56.93;46.94;72.02;;
72466;Laerm;60471;52.150;4.508;2023-06-10T12:37:36;57.96;46.53;74.59;;
72466;Laerm;60471;52.150;4.508;2023-06-10T12:40:04;58.20;45.04;74.65;;
72466;Laerm;60471;52.150;4.508;2023-06-10T12:42:36;56.36;46.80;67.68;;
72466;Laerm;60471;52.150;4.508;2023-06-10T12:45:04;56.37;49.04;63.96;;
72466;Laerm;60471;52.150;4.508;2023-06-10T12:47:36;55.95;47.77;63.69;;
72466;Laerm;60471;52.150;4.508;2023-06-10T12:50:05;56.83;47.55;64.78;;
72466;Laerm;60471;52.150;4.508;2023-06-10T12:52:32;56.97;47.78;66.12;;
72466;Laerm;60471;52.150;4.508;2023-06-10T12:54:58;55.84;47.82;65.94;;
72466;Laerm;60471;52.150;4.508;2023-06-10T12:57:26;56.22;47.52;67.16;;
72466;Laerm;60471;52.150;4.508;2023-06-10T12:59:52;56.52;47.56;65.73;;
72466;Laerm;60471;52.150;4.508;2023-06-10T13:02:19;55.30;46.19;63.02;;
72466;Laerm;60471;52.150;4.508;2023-06-10T13:04:47;57.08;45.45;66.44;;
72466;Laerm;60471;52.150;4.508;2023-06-10T13:07:13;55.66;48.56;64.21;;
72466;Laerm;60471;52.150;4.508;2023-06-10T13:09:39;56.35;45.24;63.40;;
72466;Laerm;60471;52.150;4.508;2023-06-10T13:12:06;56.10;47.17;64.37;;
72466;Laerm;60471;52.150;4.508;2023-06-10T13:14:34;56.13;45.14;65.15;;
72466;Laerm;60471;52.150;4.508;2023-06-10T13:17:00;55.33;45.54;63.22;;
72466;Laerm;60471;52.150;4.508;2023-06-10T13:19:26;54.62;43.97;63.55;;
72466;Laerm;60471;52.150;4.508;2023-06-10T13:21:52;55.54;45.55;62.86;;
72466;Laerm;60471;52.150;4.508;2023-06-10T13:24:18;56.87;47.98;64.88;;
72466;Laerm;60471;52.150;4.508;2023-06-10T13:26:46;55.96;47.56;64.01;;
72466;Laerm;60471;52.150;4.508;2023-06-10T13:29:12;57.85;49.95;67.88;;
72466;Laerm;60471;52.150;4.508;2023-06-10T13:31:40;59.03;46.17;74.33;;
72466;Laerm;60471;52.150;4.508;2023-06-10T13:34:07;54.22;45.68;67.94;;
72466;Laerm;60471;52.150;4.508;2023-06-10T13:36:33;55.28;46.06;64.56;;
72466;Laerm;60471;52.150;4.508;2023-06-10T13:38:59;57.17;49.01;66.26;;
72466;Laerm;60471;52.150;4.508;2023-06-10T13:41:26;56.71;47.82;65.07;;
72466;Laerm;60471;52.150;4.508;2023-06-10T13:43:55;55.47;42.81;66.57;;
72466;Laerm;60471;52.150;4.508;2023-06-10T13:46:21;55.20;46.44;62.73;;
72466;Laerm;60471;52.150;4.508;2023-06-10T13:48:48;55.47;44.61;68.25;;
72466;Laerm;60471;52.150;4.508;2023-06-10T13:51:14;57.65;48.40;66.13;;
72466;Laerm;60471;52.150;4.508;2023-06-10T13:53:40;57.17;48.61;65.08;;
72466;Laerm;60471;52.150;4.508;2023-06-10T13:56:07;55.66;45.72;65.65;;
72466;Laerm;60471;52.150;4.508;2023-06-10T13:58:33;56.80;46.77;64.08;;
72466;Laerm;60471;52.150;4.508;2023-06-10T14:01:05;57.11;48.85;66.56;;
72466;Laerm;60471;52.150;4.508;2023-06-10T14:03:32;55.14;46.55;65.06;;
72466;Laerm;60471;52.150;4.508;2023-06-10T14:05:58;56.29;48.04;64.72;;
72466;Laerm;60471;52.150;4.508;2023-06-10T14:08:24;57.08;48.57;64.37;;
72466;Laerm;60471;52.150;4.508;2023-06-10T14:10:50;56.34;48.75;63.91;;